»·PEaware :: N64TJ KSMF-KSFO

N64TJ :: KSMF-KSFO

FLIGHT INFORMATION

Flight Status: Arrived
Operator: Privately registered:
United States
More flights under this callsign
Pilot: Dalton B. (33280)
Aircraft: CESSNA 172 SKYHAWK
(C172)
More flights by this aircraft type
Origin: KSMF Sacramento Intl
United States
Destination: KSFO San Francisco Intl
United States
More flights between these airports :: More routes between these airports
Route:
File this flight plan on PilotEdge
Remarks:
Altitude:
(Current/Filed)
8,500ft
Speed:
(Current/Filed)
120kts
Departed: 22-Feb-21 07:09 PM
Arrived: 22-Feb-21 08:00 PM
Distance/Time
Traveled:
74nm/0:51
Distance/Time
To Go:
Arrived

Flight Plot

Page will automatically refresh every two minutes.

Flight plan parsing failed; only flown route is shown


Map Options




Map Legend


Flown Route
Filed Route
Departure Airport
Arrival Airport
Navaid (VOR, NDB)
Fix

Horizontal Profiles

Position Reports

Time Latitude Longitude Heading Altitude Ground
Speed
22-Feb-21 18:59 38.681505 -121.597789 1 20ft 0kts
22-Feb-21 19:00 38.681505 -121.597789 1 20ft 0kts
22-Feb-21 19:01 38.681505 -121.597789 1 20ft 0kts
22-Feb-21 19:02 38.681505 -121.597789 1 20ft 0kts
22-Feb-21 19:03 38.681505 -121.597789 1 20ft 0kts
22-Feb-21 19:04 38.681505 -121.597789 1 20ft 0kts
22-Feb-21 19:05 38.681505 -121.597789 1 20ft 0kts
22-Feb-21 19:06 38.681617 -121.597991 281 20ft 7kts
22-Feb-21 19:07 38.684431 -121.598823 1 20ft 11kts
22-Feb-21 19:08 38.689095 -121.598741 359 23ft 29kts
22-Feb-21 19:09 38.700475 -121.598545 0 23ft 41kts
22-Feb-21 19:10 38.707180 -121.598831 290 23ft 11kts
22-Feb-21 19:11 38.707205 -121.599567 270 23ft 0kts
22-Feb-21 19:12 38.707058 -121.600947 217 23ft 18kts
22-Feb-21 19:13 38.686027 -121.601439 180 556ft 96kts
22-Feb-21 19:14 38.659726 -121.603410 182 1522ft 95kts
22-Feb-21 19:15 38.631366 -121.602297 177 2186ft 112kts
22-Feb-21 19:16 38.600128 -121.602467 180 2810ft 109kts
22-Feb-21 19:17 38.570195 -121.602692 179 3508ft 106kts
22-Feb-21 19:18 38.541216 -121.602800 179 4237ft 101kts
22-Feb-21 19:19 38.514494 -121.602788 179 5023ft 94kts
22-Feb-21 19:20 38.489287 -121.602666 179 5801ft 88kts
22-Feb-21 19:21 38.464633 -121.602451 179 6499ft 88kts
22-Feb-21 19:21 38.444358 -121.602207 178 7081ft 86kts
22-Feb-21 19:22 38.419977 -121.601822 178 7784ft 89kts
22-Feb-21 19:24 38.390125 -121.601240 178 8473ft 101kts
22-Feb-21 19:25 38.357760 -121.601158 183 8524ft 127kts
22-Feb-21 19:26 38.322088 -121.606339 186 8526ft 131kts
22-Feb-21 19:26 38.292054 -121.610921 186 8526ft 131kts
22-Feb-21 19:27 38.256012 -121.616568 188 8526ft 131kts
22-Feb-21 19:28 38.220303 -121.626198 194 8525ft 131kts
22-Feb-21 19:30 38.179145 -121.639646 193 8525ft 132kts
22-Feb-21 19:31 38.143835 -121.651038 193 8525ft 132kts
22-Feb-21 19:31 38.114432 -121.660423 193 8525ft 132kts
22-Feb-21 19:32 38.078938 -121.671627 193 8525ft 132kts
22-Feb-21 19:33 38.044001 -121.682527 193 8525ft 132kts
22-Feb-21 19:34 38.008154 -121.693579 193 8525ft 132kts
22-Feb-21 19:35 37.972713 -121.704371 193 8525ft 132kts
22-Feb-21 19:36 37.937702 -121.715797 195 8525ft 132kts
22-Feb-21 19:37 37.902156 -121.728899 195 8525ft 132kts
22-Feb-21 19:38 37.867199 -121.741653 195 8525ft 132kts
22-Feb-21 19:39 37.832348 -121.754226 195 8525ft 131kts
22-Feb-21 19:40 37.799939 -121.765795 195 8453ft 128kts
22-Feb-21 19:41 37.764728 -121.778252 195 7946ft 132kts
22-Feb-21 19:42 37.730516 -121.790233 195 7357ft 130kts
22-Feb-21 19:43 37.695734 -121.802288 195 6756ft 129kts
22-Feb-21 19:44 37.659964 -121.814529 194 6173ft 144kts
22-Feb-21 19:45 37.621151 -121.827661 194 5579ft 146kts
22-Feb-21 19:46 37.582457 -121.843079 209 4974ft 146kts
22-Feb-21 19:47 37.564862 -121.887277 251 4316ft 149kts
22-Feb-21 19:48 37.552536 -121.936954 255 3622ft 144kts
22-Feb-21 19:49 37.543930 -121.986200 257 3122ft 144kts
22-Feb-21 19:50 37.537562 -122.035603 263 2632ft 142kts
22-Feb-21 19:51 37.533257 -122.083271 265 2428ft 134kts
22-Feb-21 19:52 37.532020 -122.129604 268 2356ft 129kts
22-Feb-21 19:53 37.539600 -122.173616 289 2354ft 128kts
22-Feb-21 19:54 37.554393 -122.215616 295 2292ft 135kts
22-Feb-21 19:55 37.569821 -122.257064 297 2008ft 118kts
22-Feb-21 19:56 37.586332 -122.292163 299 1514ft 116kts
22-Feb-21 19:57 37.600219 -122.324852 296 878ft 85kts
22-Feb-21 19:58 37.611573 -122.352313 298 254ft 74kts
22-Feb-21 19:59 37.618604 -122.366378 20 7ft 16kts

Navigation Log

Ident Type
Flight plan parsing failed, navigation log unavailable